createdAt,value
2016-04-08T00:00:36.868Z,0
2016-04-08T00:01:36.823Z,0
2016-04-08T00:02:36.810Z,0
2016-04-08T00:03:36.766Z,0
2016-04-08T00:04:36.738Z,0
2016-04-08T00:05:36.740Z,0
2016-04-08T00:06:36.681Z,0
2016-04-08T00:07:36.637Z,0
2016-04-08T00:08:36.624Z,0
2016-04-08T00:09:36.595Z,0
2016-04-08T00:10:36.582Z,0
2016-04-08T00:11:36.538Z,0
2016-04-08T00:12:36.510Z,0
2016-04-08T00:13:36.469Z,0
2016-04-08T00:14:36.472Z,0
2016-04-08T00:15:36.443Z,0
2016-04-08T00:16:36.384Z,0
2016-04-08T00:17:36.355Z,0
2016-04-08T00:18:36.343Z,0
2016-04-08T00:19:36.298Z,0
2016-04-08T00:20:36.285Z,0
2016-04-08T00:21:36.257Z,0
2016-04-08T00:22:36.243Z,0
2016-04-08T00:23:36.199Z,0
2016-04-08T00:24:36.170Z,0
2016-04-08T00:25:36.142Z,0
2016-04-08T00:26:36.114Z,0
2016-04-08T00:27:36.084Z,0
2016-04-08T00:28:35.900Z,0
2016-04-08T00:29:36.043Z,0
2016-04-08T00:30:35.999Z,0
2016-04-08T00:31:35.970Z,0
2016-04-08T00:32:35.941Z,0
2016-04-08T00:33:35.914Z,0
2016-04-08T00:34:35.885Z,0
2016-04-08T00:35:35.856Z,0
2016-04-08T00:36:35.813Z,0
2016-04-08T00:37:35.815Z,0
2016-04-08T00:38:35.771Z,0
2016-04-08T00:39:35.758Z,0
2016-04-08T00:40:35.713Z,0
2016-04-08T00:41:35.685Z,0
2016-04-08T00:42:35.656Z,0
2016-04-08T00:43:35.627Z,0
2016-04-08T00:44:35.615Z,0
2016-04-08T00:45:35.586Z,0
2016-04-08T00:46:35.542Z,0
2016-04-08T00:47:35.513Z,0
2016-04-08T00:48:35.516Z,0
2016-04-08T00:49:35.457Z,0
2016-04-08T00:50:35.428Z,0
2016-04-08T00:51:35.399Z,0
2016-04-08T00:52:35.386Z,0
2016-04-08T00:53:35.342Z,0
2016-04-08T00:54:35.314Z,0
2016-04-08T00:55:35.284Z,0
2016-04-08T00:56:35.288Z,0
2016-04-08T00:57:35.212Z,0
2016-04-08T00:58:35.200Z,0
2016-04-08T00:59:35.186Z,0
2016-04-08T01:00:35.158Z,0
2016-04-08T01:01:35.098Z,0
2016-04-08T01:02:35.085Z,0
2016-04-08T01:03:35.056Z,0
2016-04-08T01:04:35.028Z,0
2016-04-08T01:05:35.015Z,0
2016-04-08T01:06:34.986Z,0
2016-04-08T01:07:34.942Z,0
2016-04-08T01:08:34.929Z,0
2016-04-08T01:09:34.886Z,0
2016-04-08T01:10:34.857Z,0
2016-04-08T01:11:34.828Z,0
2016-04-08T01:12:34.800Z,0
2016-04-08T01:13:34.771Z,0
2016-04-08T01:14:34.743Z,0
2016-04-08T01:15:34.729Z,0
2016-04-08T01:16:34.732Z,0
2016-04-08T01:17:34.657Z,0
2016-04-08T01:18:34.628Z,0
2016-04-08T01:19:34.615Z,0
2016-04-08T01:20:34.601Z,0
2016-04-08T01:21:34.542Z,0
2016-04-08T01:22:34.514Z,0
2016-04-08T01:23:34.501Z,0
2016-04-08T01:24:34.457Z,0
2016-04-08T01:25:34.428Z,0
2016-04-08T01:26:34.400Z,0
2016-04-08T01:27:34.386Z,0
2016-04-08T01:28:34.358Z,0
2016-04-08T01:29:34.330Z,0
2016-04-08T01:30:34.300Z,0
2016-04-08T01:31:34.256Z,0
2016-04-08T01:32:34.244Z,0
2016-04-08T01:33:34.216Z,0
2016-04-08T01:34:34.187Z,0
2016-04-08T01:35:34.175Z,0
2016-04-08T01:36:34.130Z,0
2016-04-08T01:37:34.086Z,0
2016-04-08T01:38:34.072Z,0
2016-04-08T01:39:34.060Z,0
2016-04-08T01:40:34.000Z,0
2016-04-08T01:41:34.002Z,0
2016-04-08T01:42:33.958Z,0
2016-04-08T01:43:33.929Z,0
2016-04-08T01:44:33.901Z,0
2016-04-08T01:45:33.888Z,0
2016-04-08T01:46:33.844Z,0
2016-04-08T01:47:33.832Z,0
2016-04-08T01:48:33.802Z,0
2016-04-08T01:49:33.759Z,0
2016-04-08T01:50:33.729Z,0
2016-04-08T01:51:33.732Z,0
2016-04-08T01:52:33.688Z,0
2016-04-08T01:53:33.659Z,0
2016-04-08T01:54:33.615Z,0
2016-04-08T01:55:33.586Z,0
2016-04-08T01:56:33.573Z,0
2016-04-08T01:57:33.545Z,0
2016-04-08T01:58:33.501Z,0
2016-04-08T01:59:33.473Z,0
2016-04-08T02:00:33.288Z,0
2016-04-08T02:01:33.431Z,0
2016-04-08T02:02:33.247Z,0
2016-04-08T02:03:33.359Z,0
2016-04-08T02:04:33.314Z,0
2016-04-08T02:05:33.302Z,0
2016-04-08T02:06:33.272Z,0
2016-04-08T02:07:33.244Z,0
2016-04-08T02:08:33.214Z,0
2016-04-08T02:09:33.183Z,0
2016-04-08T02:10:33.154Z,0
2016-04-08T02:11:33.142Z,0
2016-04-08T02:12:33.097Z,0
2016-04-08T02:13:33.069Z,0
2016-04-08T02:14:33.024Z,0
2016-04-08T02:15:33.027Z,0
2016-04-08T02:16:32.983Z,0
2016-04-08T02:17:32.969Z,0
2016-04-08T02:18:32.925Z,0
2016-04-08T02:19:32.912Z,0
2016-04-08T02:20:32.883Z,0
2016-04-08T02:21:32.824Z,0
2016-04-08T02:22:32.810Z,0
2016-04-08T02:23:32.626Z,0
2016-04-08T02:24:32.769Z,0
2016-04-08T02:25:32.726Z,0
2016-04-08T02:26:32.697Z,0
2016-04-08T02:27:32.669Z,0
2016-04-08T02:28:32.655Z,0
2016-04-08T02:29:32.627Z,0
2016-04-08T02:30:46.742Z,0
2016-04-08T02:31:32.554Z,0
2016-04-08T02:32:32.525Z,0
2016-04-08T02:33:32.497Z,0
2016-04-08T02:34:32.468Z,0
2016-04-08T02:35:32.456Z,0
2016-04-08T02:36:32.396Z,0
2016-04-08T02:37:32.383Z,0
2016-04-08T02:38:32.354Z,0
2016-04-08T02:39:32.357Z,0
2016-04-08T02:40:32.297Z,0
2016-04-08T02:41:32.269Z,0
2016-04-08T02:42:32.239Z,0
2016-04-08T02:43:32.180Z,0
2016-04-08T02:44:32.183Z,0
2016-04-08T02:45:32.154Z,0
2016-04-08T02:46:32.110Z,0
2016-04-08T02:47:32.097Z,0
2016-04-08T02:48:32.053Z,0
2016-04-08T02:49:32.024Z,0
2016-04-08T02:50:32.011Z,0
2016-04-08T02:51:31.967Z,0
2016-04-08T02:52:31.955Z,0
2016-04-08T02:53:31.910Z,0
2016-04-08T02:54:31.882Z,0
2016-04-08T02:55:31.853Z,0
2016-04-08T02:56:31.824Z,0
2016-04-08T02:57:31.827Z,0
2016-04-08T02:58:31.939Z,0
2016-04-08T02:59:31.770Z,0
2016-04-08T03:00:31.726Z,0
2016-04-08T03:01:31.682Z,0
2016-04-08T03:02:31.654Z,0
2016-04-08T03:03:31.640Z,0
2016-04-08T03:04:31.487Z,0
2016-04-08T03:05:31.583Z,0
2016-04-08T03:06:31.539Z,0
2016-04-08T03:07:31.510Z,0
2016-04-08T03:08:31.497Z,0
2016-04-08T03:09:31.484Z,0
2016-04-08T03:10:31.424Z,0
2016-04-08T03:11:31.395Z,0
2016-04-08T03:12:31.383Z,0
2016-04-08T03:13:31.385Z,0
2016-04-08T03:14:31.295Z,0
2016-04-08T03:15:31.297Z,0
2016-04-08T03:16:31.253Z,0
2016-04-08T03:17:31.225Z,0
2016-04-08T03:18:31.196Z,0
2016-04-08T03:19:30.996Z,0
2016-04-08T03:20:31.139Z,0
2016-04-08T03:21:31.126Z,0
2016-04-08T03:22:31.066Z,0
2016-04-08T03:23:31.053Z,0
2016-04-08T03:24:31.041Z,0
2016-04-08T03:25:30.997Z,0
2016-04-08T03:26:30.968Z,0
2016-04-08T03:27:30.939Z,0
2016-04-08T03:28:31.474Z,0
2016-04-08T03:29:30.866Z,0
2016-04-08T03:30:30.838Z,0
2016-04-08T03:31:30.824Z,0
2016-04-08T03:32:30.827Z,0
2016-04-08T03:33:30.798Z,0
2016-04-08T03:34:30.754Z,0
2016-04-08T03:35:30.743Z,0
2016-04-08T03:36:30.744Z,0
2016-04-08T03:37:30.775Z,0
2016-04-08T03:38:30.805Z,0
2016-04-08T03:39:30.821Z,0
2016-04-08T03:40:30.815Z,0
2016-04-08T03:41:30.802Z,0
2016-04-08T03:42:30.788Z,0
2016-04-08T03:43:30.964Z,0
2016-04-08T03:44:30.747Z,0
2016-04-08T03:45:30.727Z,0
2016-04-08T03:46:30.704Z,0
2016-04-08T03:47:30.679Z,0
2016-04-08T03:48:30.656Z,0
2016-04-08T03:49:30.633Z,0
2016-04-08T03:50:30.608Z,0
2016-04-08T03:51:30.581Z,0
2016-04-08T03:52:30.540Z,0
2016-04-08T03:53:30.544Z,0
2016-04-08T03:54:30.502Z,0
2016-04-08T03:55:30.506Z,0
2016-04-08T03:56:30.446Z,0
2016-04-08T03:57:30.418Z,0
2016-04-08T03:58:30.578Z,0
2016-04-08T03:59:30.378Z,0
2016-04-08T04:00:30.350Z,0
2016-04-08T04:01:30.322Z,0
2016-04-08T04:02:30.294Z,0
2016-04-08T04:03:30.250Z,0
2016-04-08T04:04:30.238Z,0
2016-04-08T04:05:30.210Z,0
2016-04-08T04:06:30.165Z,0
2016-04-08T04:07:30.168Z,0
2016-04-08T04:08:30.123Z,0
2016-04-08T04:09:30.095Z,0
2016-04-08T04:10:30.066Z,0
2016-04-08T04:11:30.037Z,0
2016-04-08T04:12:30.009Z,0
2016-04-08T04:13:29.981Z,0
2016-04-08T04:14:29.967Z,0
2016-04-08T04:15:29.924Z,0
2016-04-08T04:16:29.895Z,0
2016-04-08T04:17:29.882Z,0
2016-04-08T04:18:29.854Z,0
2016-04-08T04:19:29.825Z,0
2016-04-08T04:20:29.796Z,0
2016-04-08T04:21:29.767Z,0
2016-04-08T04:22:29.739Z,0
2016-04-08T04:23:29.726Z,0
2016-04-08T04:24:29.698Z,0
2016-04-08T04:25:29.669Z,0
2016-04-08T04:26:29.625Z,0
2016-04-08T04:27:29.627Z,0
2016-04-08T04:28:29.599Z,0
2016-04-08T04:29:29.539Z,0
2016-04-08T04:30:29.527Z,0
2016-04-08T04:31:29.498Z,0
2016-04-08T04:32:29.485Z,0
2016-04-08T04:33:29.441Z,0
2016-04-08T04:34:29.396Z,0
2016-04-08T04:35:29.368Z,0
2016-04-08T04:36:29.355Z,0
2016-04-08T04:37:29.326Z,0
2016-04-08T04:38:29.298Z,0
2016-04-08T04:39:29.285Z,0
2016-04-08T04:40:29.241Z,0
2016-04-08T04:41:29.197Z,0
2016-04-08T04:42:29.184Z,0
2016-04-08T04:43:29.155Z,0
2016-04-08T04:44:29.142Z,0
2016-04-08T04:45:29.113Z,0
2016-04-08T04:46:29.054Z,0
2016-04-08T04:47:29.056Z,0
2016-04-08T04:48:29.028Z,5
2016-04-08T04:49:28.983Z,5
2016-04-08T04:50:28.970Z,5
2016-04-08T04:51:28.958Z,5
2016-04-08T04:52:28.914Z,5
2016-04-08T04:53:28.884Z,5
2016-04-08T04:54:28.857Z,5
2016-04-08T04:55:28.844Z,5
2016-04-08T04:56:28.815Z,5
2016-04-08T04:57:28.771Z,10
2016-04-08T04:58:28.742Z,10
2016-04-08T04:59:28.714Z,10
2016-04-08T05:00:28.700Z,10
2016-04-08T05:01:28.688Z,10
2016-04-08T05:02:28.659Z,10
2016-04-08T05:03:28.599Z,10
2016-04-08T05:04:28.586Z,10
2016-04-08T05:05:28.557Z,10
2016-04-08T05:06:28.529Z,10
2016-04-08T05:07:28.501Z,10
2016-04-08T05:08:28.457Z,10
2016-04-08T05:09:28.444Z,10
2016-04-08T05:10:28.415Z,15
2016-04-08T05:11:28.387Z,15
2016-04-08T05:12:28.374Z,15
2016-04-08T05:13:28.345Z,10
2016-04-08T05:14:28.301Z,10
2016-04-08T05:15:28.288Z,10
2016-04-08T05:16:28.259Z,10
2016-04-08T05:17:28.232Z,10
2016-04-08T05:18:28.202Z,5
2016-04-08T05:19:28.174Z,5
2016-04-08T05:20:28.162Z,5
2016-04-08T05:21:28.117Z,5
2016-04-08T05:22:28.104Z,10
2016-04-08T05:23:28.059Z,10
2016-04-08T05:24:28.031Z,10
2016-04-08T05:25:28.018Z,10
2016-04-08T05:26:27.989Z,15
2016-04-08T05:27:27.961Z,15
2016-04-08T05:28:27.916Z,20
2016-04-08T05:29:27.919Z,20
2016-04-08T05:30:27.875Z,20
2016-04-08T05:31:27.847Z,25
2016-04-08T05:32:27.819Z,25
2016-04-08T05:33:27.805Z,25
2016-04-08T05:34:27.777Z,30
2016-04-08T05:35:27.748Z,30
2016-04-08T05:36:27.705Z,30
2016-04-08T05:37:27.675Z,30
2016-04-08T05:38:27.678Z,30
2016-04-08T05:39:27.649Z,25
2016-04-08T05:40:27.605Z,30
2016-04-08T05:41:27.593Z,30
2016-04-08T05:42:27.548Z,30
2016-04-08T05:43:27.519Z,30
2016-04-08T05:44:27.506Z,30
2016-04-08T05:45:27.478Z,30
2016-04-08T05:46:27.434Z,30
2016-04-08T05:47:27.420Z,30
2016-04-08T05:48:27.377Z,35
2016-04-08T05:49:27.364Z,35
2016-04-08T05:50:27.320Z,35
2016-04-08T05:51:27.307Z,30
2016-04-08T05:52:27.293Z,30
2016-04-08T05:53:27.250Z,40
2016-04-08T05:54:27.252Z,40
2016-04-08T05:55:27.223Z,45
2016-04-08T05:56:27.164Z,40
2016-04-08T05:57:27.150Z,40
2016-04-08T05:58:27.153Z,40
2016-04-08T05:59:27.094Z,35
2016-04-08T06:00:27.081Z,40
2016-04-08T06:01:27.037Z,45
2016-04-08T06:02:27.024Z,45
2016-04-08T06:03:26.995Z,45
2016-04-08T06:04:26.967Z,45
2016-04-08T06:05:26.938Z,45
2016-04-08T06:06:26.894Z,50
2016-04-08T06:07:26.897Z,50
2016-04-08T06:08:26.852Z,50
2016-04-08T06:09:26.839Z,50
2016-04-08T06:10:26.795Z,50
2016-04-08T06:11:26.782Z,50
2016-04-08T06:12:26.738Z,50
2016-04-08T06:13:26.725Z,50
2016-04-08T06:14:26.696Z,50
2016-04-08T06:15:26.669Z,50
2016-04-08T06:16:26.640Z,50
2016-04-08T06:17:26.611Z,50
2016-04-08T06:18:26.582Z,50
2016-04-08T06:19:26.570Z,50
2016-04-08T06:20:26.526Z,50
2016-04-08T06:21:26.512Z,50
2016-04-08T06:22:26.468Z,50
2016-04-08T06:23:26.440Z,45
2016-04-08T06:24:26.426Z,40
2016-04-08T06:25:26.382Z,50
2016-04-08T06:26:26.384Z,50
2016-04-08T06:27:26.356Z,50
2016-04-08T06:28:26.312Z,55
2016-04-08T06:29:26.283Z,60
2016-04-08T06:30:26.255Z,55
2016-04-08T06:31:26.227Z,60
2016-04-08T06:32:26.214Z,65
2016-04-08T06:33:26.170Z,65
2016-04-08T06:34:26.157Z,65
2016-04-08T06:35:26.128Z,70
2016-04-08T06:36:26.116Z,75
2016-04-08T06:37:26.072Z,75
2016-04-08T06:38:26.043Z,75
2016-04-08T06:39:26.014Z,75
2016-04-08T06:40:25.845Z,75
2016-04-08T06:41:25.958Z,75
2016-04-08T06:42:25.944Z,75
2016-04-08T06:43:25.931Z,75
2016-04-08T06:44:25.888Z,80
2016-04-08T06:45:25.858Z,80
2016-04-08T06:46:25.830Z,85
2016-04-08T06:47:25.802Z,90
2016-04-08T06:48:25.789Z,95
2016-04-08T06:49:25.760Z,95
2016-04-08T06:50:25.716Z,95
2016-04-08T06:51:25.702Z,100
2016-04-08T06:52:25.659Z,100
2016-04-08T06:53:25.645Z,105
2016-04-08T06:54:25.617Z,105
2016-04-08T06:55:25.588Z,110
2016-04-08T06:56:25.560Z,110
2016-04-08T06:57:25.547Z,110
2016-04-08T06:58:25.362Z,110
2016-04-08T06:59:25.490Z,105
2016-04-08T07:00:25.467Z,105
2016-04-08T07:01:25.453Z,105
2016-04-08T07:02:25.425Z,105
2016-04-08T07:03:25.396Z,110
2016-04-08T07:04:25.383Z,115
2016-04-08T07:05:25.338Z,115
2016-04-08T07:06:25.310Z,115
2016-04-08T07:07:25.297Z,115
2016-04-08T07:08:25.129Z,115
2016-04-08T07:09:25.241Z,115
2016-04-08T07:10:25.213Z,115
2016-04-08T07:11:25.169Z,120
2016-04-08T07:12:25.000Z,120
2016-04-08T07:13:25.127Z,120
2016-04-08T07:14:25.412Z,125
2016-04-08T07:15:25.101Z,125
2016-04-08T07:16:25.058Z,125
2016-04-08T07:17:25.028Z,125
2016-04-08T07:18:25.000Z,135
2016-04-08T07:19:24.972Z,130
2016-04-08T07:20:24.943Z,135
2016-04-08T07:21:24.946Z,130
2016-04-08T07:22:24.885Z,145
2016-04-08T07:23:24.889Z,140
2016-04-08T07:24:24.844Z,140
2016-04-08T07:25:24.847Z,145
2016-04-08T07:26:24.803Z,155
2016-04-08T07:27:24.774Z,155
2016-04-08T07:28:24.746Z,160
2016-04-08T07:29:24.842Z,160
2016-04-08T07:30:24.689Z,165
2016-04-08T07:31:24.691Z,165
2016-04-08T07:32:24.646Z,165
2016-04-08T07:33:24.618Z,165
2016-04-08T07:34:24.590Z,160
2016-04-08T07:35:24.562Z,160
2016-04-08T07:36:24.548Z,160
2016-04-08T07:37:24.504Z,155
2016-04-08T07:38:24.492Z,155
2016-04-08T07:39:24.448Z,155
2016-04-08T07:40:24.434Z,155
2016-04-08T07:41:30.562Z,155
2016-04-08T07:42:25.674Z,155
2016-04-08T07:43:26.927Z,155
2016-04-08T07:44:31.054Z,160
2016-04-08T07:45:27.135Z,165
2016-04-08T07:46:29.356Z,170
2016-04-08T07:47:31.250Z,185
2016-04-08T07:48:31.409Z,195
2016-04-08T07:49:30.818Z,195
2016-04-08T07:50:30.759Z,195
2016-04-08T07:51:30.855Z,190
2016-04-08T07:52:30.372Z,185
2016-04-08T07:53:30.845Z,185
2016-04-08T07:54:30.956Z,185
2016-04-08T07:55:30.741Z,180
2016-04-08T07:56:30.758Z,170
2016-04-08T07:57:31.089Z,175
2016-04-08T07:58:30.858Z,185
2016-04-08T07:59:30.704Z,185
2016-04-08T08:00:30.691Z,190
2016-04-08T08:01:28.710Z,195
2016-04-08T08:02:30.509Z,200
2016-04-08T08:03:30.496Z,205
2016-04-08T08:04:30.311Z,215
2016-04-08T08:05:29.236Z,220
2016-04-08T08:06:23.801Z,225
2016-04-08T08:07:29.991Z,230
2016-04-08T08:08:29.947Z,240
2016-04-08T08:09:29.965Z,240
2016-04-08T08:10:23.687Z,250
2016-04-08T08:11:23.658Z,255
2016-04-08T08:12:24.240Z,260
2016-04-08T08:13:23.601Z,265
2016-04-08T08:14:23.651Z,280
2016-04-08T08:15:23.544Z,290
2016-04-08T08:16:23.844Z,310
2016-04-08T08:17:23.503Z,325
2016-04-08T08:18:23.489Z,330
2016-04-08T08:19:23.461Z,330
2016-04-08T08:20:23.448Z,325
2016-04-08T08:21:23.873Z,325
2016-04-08T08:22:23.406Z,325
2016-04-08T08:23:23.363Z,320
2016-04-08T08:24:23.366Z,325
2016-04-08T08:25:23.977Z,330
2016-04-08T08:26:23.292Z,335
2016-04-08T08:27:23.280Z,345
2016-04-08T08:28:23.267Z,355
2016-04-08T08:29:23.332Z,365
2016-04-08T08:30:23.193Z,375
2016-04-08T08:31:23.197Z,385
2016-04-08T08:32:23.152Z,370
2016-04-08T08:33:23.140Z,370
2016-04-08T08:34:23.111Z,375
2016-04-08T08:35:23.082Z,375
2016-04-08T08:36:23.069Z,370
2016-04-08T08:37:23.041Z,350
2016-04-08T08:38:23.028Z,340
2016-04-08T08:39:22.999Z,335
2016-04-08T08:40:22.970Z,330
2016-04-08T08:41:22.957Z,320
2016-04-08T08:42:22.960Z,320
2016-04-08T08:43:22.900Z,320
2016-04-08T08:44:22.887Z,325
2016-04-08T08:45:22.843Z,340
2016-04-08T08:46:22.831Z,350
2016-04-08T08:47:22.802Z,360
2016-04-08T08:48:23.070Z,370
2016-04-08T08:49:22.761Z,380
2016-04-08T08:50:22.731Z,400
2016-04-08T08:51:22.719Z,400
2016-04-08T08:52:22.690Z,390
2016-04-08T08:53:22.678Z,390
2016-04-08T08:54:22.649Z,405
2016-04-08T08:55:22.620Z,405
2016-04-08T08:56:22.608Z,400
2016-04-08T08:57:22.594Z,390
2016-04-08T08:58:22.566Z,385
2016-04-08T08:59:22.538Z,375
2016-04-08T09:00:22.524Z,370
2016-04-08T09:01:22.340Z,365
2016-04-08T09:02:22.467Z,370
2016-04-08T09:03:22.455Z,385
2016-04-08T09:04:22.426Z,385
2016-04-08T09:05:22.397Z,395
2016-04-08T09:06:22.244Z,380
2016-04-08T09:07:22.371Z,345
2016-04-08T09:08:22.327Z,335
2016-04-08T09:09:22.314Z,350
2016-04-08T09:10:22.302Z,360
2016-04-08T09:11:22.257Z,365
2016-04-08T09:12:22.259Z,380
2016-04-08T09:13:22.231Z,370
2016-04-08T09:14:22.218Z,375
2016-04-08T09:15:22.174Z,380
2016-04-08T09:16:22.146Z,380
2016-04-08T09:17:22.148Z,375
2016-04-08T09:18:22.119Z,340
2016-04-08T09:19:22.091Z,305
2016-04-08T09:20:22.078Z,315
2016-04-08T09:21:23.300Z,335
2016-04-08T09:22:22.021Z,360
2016-04-08T09:23:22.008Z,425
2016-04-08T09:24:21.980Z,440
2016-04-08T09:25:21.950Z,435
2016-04-08T09:26:21.954Z,420
2016-04-08T09:27:21.925Z,445
2016-04-08T09:28:21.896Z,420
2016-04-08T09:29:21.900Z,410
2016-04-08T09:30:21.855Z,425
2016-04-08T09:31:21.671Z,395
2016-04-08T09:32:21.798Z,385
2016-04-08T09:33:21.785Z,430
2016-04-08T09:34:21.772Z,470
2016-04-08T09:35:21.728Z,500
2016-04-08T09:36:21.731Z,490
2016-04-08T09:37:21.702Z,495
2016-04-08T09:38:21.689Z,505
2016-04-08T09:39:21.660Z,505
2016-04-08T09:40:21.648Z,500
2016-04-08T09:41:21.618Z,485
2016-04-08T09:42:21.606Z,465
2016-04-08T09:43:21.421Z,450
2016-04-08T09:44:21.548Z,455
2016-04-08T09:45:21.520Z,465
2016-04-08T09:46:21.554Z,470
2016-04-08T09:47:21.510Z,475
2016-04-08T09:48:21.466Z,465
2016-04-08T09:49:21.453Z,430
2016-04-08T09:50:21.425Z,405
2016-04-08T09:51:21.411Z,425
2016-04-08T09:52:21.383Z,430
2016-04-08T09:53:21.214Z,435
2016-04-08T09:54:21.372Z,430
2016-04-08T09:55:21.329Z,440
2016-04-08T09:56:21.316Z,465
2016-04-08T09:57:21.474Z,475
2016-04-08T09:58:21.278Z,450
2016-04-08T09:59:21.249Z,460
2016-04-08T10:00:21.112Z,495
2016-04-08T10:01:21.209Z,505
2016-04-08T10:02:21.195Z,495
2016-04-08T10:03:21.198Z,480
2016-04-08T10:04:21.138Z,490
2016-04-08T10:05:21.125Z,490
2016-04-08T10:06:21.112Z,485
2016-04-08T10:07:21.099Z,485
2016-04-08T10:08:21.086Z,475
2016-04-08T10:09:21.073Z,500
2016-04-08T10:10:21.044Z,510
2016-04-08T10:11:21.048Z,520
2016-04-08T10:12:20.988Z,515
2016-04-08T10:13:20.990Z,505
2016-04-08T10:14:20.961Z,500
2016-04-08T10:15:20.933Z,500
2016-04-08T10:16:20.920Z,510
2016-04-08T10:17:20.922Z,520
2016-04-08T10:18:20.879Z,545
2016-04-08T10:19:20.850Z,545
2016-04-08T10:20:20.696Z,545
2016-04-08T10:21:20.825Z,525
2016-04-08T10:22:20.796Z,520
2016-04-08T10:23:20.782Z,505
2016-04-08T10:24:20.755Z,495
2016-04-08T10:25:20.741Z,480
2016-04-08T10:26:20.729Z,450
2016-04-08T10:27:20.715Z,440
2016-04-08T10:28:20.687Z,440
2016-04-08T10:29:20.659Z,445
2016-04-08T10:30:20.662Z,450
2016-04-08T10:31:20.632Z,425
2016-04-08T10:32:20.619Z,400
2016-04-08T10:33:20.622Z,400
2016-04-08T10:34:20.578Z,390
2016-04-08T10:35:20.550Z,360
2016-04-08T10:36:20.536Z,315
2016-04-08T10:37:20.508Z,300
2016-04-08T10:38:20.511Z,300
2016-04-08T10:39:20.482Z,305
2016-04-08T10:40:20.453Z,305
2016-04-08T10:41:20.441Z,335
2016-04-08T10:42:20.427Z,360
2016-04-08T10:43:20.400Z,365
2016-04-08T10:44:20.386Z,370
2016-04-08T10:45:20.373Z,355
2016-04-08T10:46:20.344Z,320
2016-04-08T10:47:20.332Z,280
2016-04-08T10:48:20.319Z,250
2016-04-08T10:49:20.275Z,255
2016-04-08T10:50:20.277Z,270
2016-04-08T10:51:20.248Z,295
2016-04-08T10:52:20.236Z,315
2016-04-08T10:53:20.223Z,325
2016-04-08T10:54:20.179Z,325
2016-04-08T10:55:20.165Z,300
2016-04-08T10:56:20.168Z,270
2016-04-08T10:57:20.124Z,235
2016-04-08T10:58:20.112Z,220
2016-04-08T10:59:20.083Z,215
2016-04-08T11:00:20.163Z,220
2016-04-08T11:01:20.053Z,245
2016-04-08T11:02:20.026Z,255
2016-04-08T11:03:20.028Z,240
2016-04-08T11:04:19.983Z,210
2016-04-08T11:05:19.956Z,180
2016-04-08T11:06:19.958Z,165
2016-04-08T11:07:19.914Z,160
2016-04-08T11:08:19.900Z,160
2016-04-08T11:09:19.888Z,170
2016-04-08T11:10:19.859Z,180
2016-04-08T11:11:19.675Z,190
2016-04-08T11:12:19.833Z,200
2016-04-08T11:13:19.789Z,215
2016-04-08T11:14:19.791Z,225
2016-04-08T11:15:19.857Z,235
2016-04-08T11:16:19.735Z,240
2016-04-08T11:17:19.707Z,240
2016-04-08T11:18:19.694Z,235
2016-04-08T11:19:19.665Z,235
2016-04-08T11:20:19.652Z,240
2016-04-08T11:21:19.468Z,245
2016-04-08T11:22:19.610Z,260
2016-04-08T11:23:19.581Z,265
2016-04-08T11:24:19.569Z,285
2016-04-08T11:25:19.556Z,315
2016-04-08T11:26:19.526Z,350
2016-04-08T11:27:19.514Z,355
2016-04-08T11:28:19.486Z,360
2016-04-08T11:29:19.473Z,355
2016-04-08T11:30:19.570Z,340
2016-04-08T11:31:19.431Z,340
2016-04-08T11:32:19.418Z,345
2016-04-08T11:33:19.374Z,340
2016-04-08T11:34:19.346Z,335
2016-04-08T11:35:19.333Z,325
2016-04-08T11:36:19.304Z,305
2016-04-08T11:37:19.136Z,295
2016-04-08T11:38:19.263Z,290
2016-04-08T11:39:19.234Z,285
2016-04-08T11:40:19.237Z,285
2016-04-08T11:41:19.192Z,290
2016-04-08T11:42:19.195Z,295
2016-04-08T11:43:19.152Z,300
2016-04-08T11:44:24.841Z,310
2016-04-08T11:45:24.749Z,315
2016-04-08T11:46:24.346Z,320
2016-04-08T11:47:24.397Z,325
2016-04-08T11:48:19.055Z,335
2016-04-08T11:49:19.043Z,335
2016-04-08T11:50:21.466Z,340
2016-04-08T11:51:24.485Z,350
2016-04-08T11:52:25.332Z,360
2016-04-08T11:53:24.882Z,365
2016-04-08T11:54:18.931Z,370
2016-04-08T11:55:18.917Z,375
2016-04-08T11:56:18.905Z,375
2016-04-08T11:57:18.876Z,370
2016-04-08T11:58:18.832Z,370
2016-04-08T11:59:18.835Z,360
2016-04-08T12:00:19.025Z,360
2016-04-08T12:01:18.778Z,365
2016-04-08T12:02:18.781Z,365
2016-04-08T12:03:18.751Z,370
2016-04-08T12:04:18.739Z,375
2016-04-08T12:05:18.694Z,390
2016-04-08T12:06:18.682Z,395
2016-04-08T12:07:18.653Z,410
2016-04-08T12:08:19.031Z,415
2016-04-08T12:09:18.618Z,410
2016-04-08T12:10:18.604Z,400
2016-04-08T12:11:18.592Z,380
2016-04-08T12:12:18.564Z,365
2016-04-08T12:13:18.550Z,345
2016-04-08T12:14:18.522Z,325
2016-04-08T12:15:18.728Z,315
2016-04-08T12:16:18.480Z,305
2016-04-08T12:17:18.452Z,290
2016-04-08T12:18:18.283Z,290
2016-04-08T12:19:18.425Z,280
2016-04-08T12:20:18.413Z,275
2016-04-08T12:21:18.383Z,270
2016-04-08T12:22:18.386Z,260
2016-04-08T12:23:18.358Z,260
2016-04-08T12:24:18.313Z,260
2016-04-08T12:25:18.316Z,265
2016-04-08T12:26:18.288Z,270
2016-04-08T12:27:18.259Z,275
2016-04-08T12:28:18.246Z,285
2016-04-08T12:29:18.234Z,290
2016-04-08T12:30:18.220Z,300
2016-04-08T12:31:18.176Z,305
2016-04-08T12:32:18.179Z,300
2016-04-08T12:33:18.151Z,300
2016-04-08T12:34:18.122Z,310
2016-04-08T12:35:18.109Z,320
2016-04-08T12:36:18.081Z,325
2016-04-08T12:37:18.083Z,330
2016-04-08T12:38:18.039Z,330
2016-04-08T12:39:18.057Z,335
2016-04-08T12:40:18.028Z,335
2016-04-08T12:41:18.041Z,340
2016-04-08T12:42:18.053Z,335
2016-04-08T12:43:18.081Z,335
2016-04-08T12:44:18.093Z,335
2016-04-08T12:45:18.120Z,330
2016-04-08T12:46:18.123Z,325
2016-04-08T12:47:18.108Z,320
2016-04-08T12:48:18.110Z,330
2016-04-08T12:49:18.095Z,350
2016-04-08T12:50:18.098Z,365
2016-04-08T12:51:18.075Z,370
2016-04-08T12:52:18.083Z,365
2016-04-08T12:53:18.059Z,365
2016-04-08T12:54:18.036Z,360
2016-04-08T12:55:18.028Z,365
2016-04-08T12:56:18.002Z,360
2016-04-08T12:57:17.991Z,360
2016-04-08T12:58:17.964Z,355
2016-04-08T12:59:17.953Z,355
2016-04-08T13:00:17.926Z,350
2016-04-08T13:01:17.898Z,340
2016-04-08T13:02:17.918Z,320
2016-04-08T13:03:17.874Z,310
2016-04-08T13:04:17.848Z,305
2016-04-08T13:05:17.850Z,300
2016-04-08T13:06:17.821Z,300
2016-04-08T13:07:17.809Z,305
2016-04-08T13:08:17.780Z,305
2016-04-08T13:09:17.752Z,305
2016-04-08T13:10:17.754Z,300
2016-04-08T13:11:17.726Z,285
2016-04-08T13:12:17.729Z,270
2016-04-08T13:13:17.684Z,260
2016-04-08T13:14:17.672Z,255
2016-04-08T13:15:17.643Z,250
2016-04-08T13:16:17.631Z,240
2016-04-08T13:17:17.601Z,230
2016-04-08T13:18:17.588Z,225
2016-04-08T13:19:17.576Z,220
2016-04-08T13:20:17.563Z,215
2016-04-08T13:21:17.534Z,210
2016-04-08T13:22:17.522Z,205
2016-04-08T13:23:17.477Z,210
2016-04-08T13:24:17.464Z,215
2016-04-08T13:25:17.436Z,220
2016-04-08T13:26:17.422Z,220
2016-04-08T13:27:17.410Z,220
2016-04-08T13:28:17.380Z,220
2016-04-08T13:29:17.368Z,225
2016-04-08T13:30:17.340Z,230
2016-04-08T13:31:17.327Z,235
2016-04-08T13:32:17.314Z,235
2016-04-08T13:33:17.285Z,220
2016-04-08T13:34:17.256Z,220
2016-04-08T13:35:17.229Z,220
2016-04-08T13:36:17.215Z,215
2016-04-08T13:37:17.201Z,210
2016-04-08T13:38:17.189Z,210
2016-04-08T13:39:17.160Z,210
2016-04-08T13:40:17.148Z,210
2016-04-08T13:41:17.120Z,215
2016-04-08T13:42:17.106Z,220
2016-04-08T13:43:17.078Z,230
2016-04-08T13:44:17.049Z,235
2016-04-08T13:45:17.036Z,250
2016-04-08T13:46:17.008Z,265
2016-04-08T13:47:17.010Z,280
2016-04-08T13:48:16.981Z,295
2016-04-08T13:49:16.953Z,290
2016-04-08T13:50:16.940Z,295
2016-04-08T13:51:16.912Z,300
2016-04-08T13:52:16.899Z,290
2016-04-08T13:53:16.870Z,290
2016-04-08T13:54:16.872Z,290
2016-04-08T13:55:16.845Z,295
2016-04-08T13:56:16.816Z,300
2016-04-08T13:57:16.802Z,300
2016-04-08T13:58:16.774Z,295
2016-04-08T13:59:16.761Z,300
2016-04-08T14:00:16.732Z,300
2016-04-08T14:01:16.720Z,305
2016-04-08T14:02:16.691Z,300
2016-04-08T14:03:16.663Z,300
2016-04-08T14:04:16.649Z,295
2016-04-08T14:05:16.621Z,290
2016-04-08T14:06:16.593Z,285
2016-04-08T14:07:16.579Z,285
2016-04-08T14:08:16.567Z,275
2016-04-08T14:09:16.538Z,270
2016-04-08T14:10:16.540Z,270